Norwalk, Connecticut
Current Conditions -  °F | °C
As of 3:52 PM on Friday 28 Nov 2014 (Local Time) from KBDR Reporting Station
Clear Clear  
Wind Chill: 27°   Ceiling: Unl
Heat Index: 35°   Visibility: 10mi
Dew Point: 18°   Wind: 10mph
Humidity: 50%   Direction: 280°W
Pressure: 30.16"   Gusts: 21mph
Location:  41.11°N, 73.41°W
Report Text: KBDR 282052Z 28009G18KT 10SM CLR 02/M08 A3016 RMK AO2 SLP211 T00171078 53014
Loading
Personal Weather Stations






























Interactive Weather Map New forecast layout! Learn more

10-Day Weather Forecast

Advertisements
Track Severe Weather on mobile